Aiwamaru — JD2602 — position and weather

sailwx.info

Track history (hours):
 
Tides and Currents Weather Stations Pressure Air Temp Water Temp Dewpoint Dewpoint Depression Visibility Wind Speed Wind Dir Waves Ship Positions

Aiwamaru

Last reported at 2015-May-30 09:32 UTC. Time now 2015-May-30 10:30 UTC.
Position N 35°31' E 140°46'.

Length 64 m; draft 4.8 m.

Type: Tanker. MMSI: 431000508.

Date/timePositionNaut miles runAvg speedWind from/ knotsBaromVisibWave heightAir tempDewpointWater temp
2015-May-30 09:32N 35°31' E 140°46'3912.2
2015-May-30 06:23N 35°03' E 140°13'2310.1
2015-May-30 04:03N 34°55' E 139°46'510.6
2015-May-30 03:33N 34°60' E 139°44'1212.2
2015-May-30 02:33N 35°12' E 139°46'8 7.7
2015-May-30 01:33N 35°19' E 139°43'7 6.9
2015-May-30 00:33N 35°26' E 139°45'5 4.5
2015-May-29 23:33N 35°30' E 139°45'0 0.0
2015-May-29 22:33N 35°30' E 139°45'0 0.0
2015-May-29 21:33N 35°30' E 139°45'0 0.0
2015-May-29 20:33N 35°30' E 139°45'0 0.0
2015-May-29 19:33N 35°30' E 139°45'0 0.0
2015-May-29 18:33N 35°30' E 139°45'0 0.0
2015-May-29 17:33N 35°30' E 139°45'0 0.0
2015-May-29 16:33N 35°30' E 139°45'0 0.0
2015-May-29 15:33N 35°30' E 139°45'0 0.0
2015-May-29 14:33N 35°30' E 139°45'0 0.0
2015-May-29 13:33N 35°30' E 139°45'0 0.0
2015-May-29 12:33N 35°30' E 139°45'0 0.0
2015-May-29 11:33N 35°30' E 139°45'0 0.0
2015-May-29 10:33N 35°30' E 139°45'0 0.0
2015-May-29 09:33N 35°30' E 139°45'0 0.0
2015-May-29 08:33N 35°30' E 139°45'0 0.0
2015-May-29 07:33N 35°30' E 139°45'0 0.0
2015-May-29 06:33N 35°30' E 139°45'0 0.0
2015-May-29 05:33N 35°30' E 139°45'0 0.0
2015-May-29 04:33N 35°30' E 139°45'0 0.0
2015-May-29 03:33N 35°30' E 139°45'1 0.8
2015-May-29 02:33N 35°31' E 139°46'0 0.0
2015-May-29 01:33N 35°31' E 139°46'0 0.0
2015-May-29 00:33N 35°31' E 139°46'2 2.4
2015-May-28 23:33N 35°29' E 139°49'0 0.0
2015-May-28 22:33N 35°29' E 139°49'0 0.0
2015-May-28 21:33N 35°29' E 139°49'0 0.0
2015-May-28 20:33N 35°29' E 139°49'0 0.0
2015-May-28 19:33N 35°29' E 139°49'3 3.4
2015-May-28 18:33N 35°26' E 139°47'1010.0
2015-May-28 17:33N 35°16' E 139°46'1111.0
2015-May-28 16:33N 35°05' E 139°45'22 7.3
2015-May-28 13:31N 35°02' E 140°12'2110.0
2015-May-28 11:24N 35°17' E 140°30'82 3.0
2015-May-27 08:05N 36°36' E 140°53'911.6
2015-May-27 07:20N 36°27' E 140°54'4812.2
2015-May-27 03:22N 35°39' E 140°56'1112.5
2015-May-27 02:31N 35°31' E 140°47'4112.6
2015-May-26 23:18N 35°01' E 140°13'1211.5
2015-May-26 22:16N 34°55' E 140°01'1011.3
2015-May-26 21:25N 34°51' E 139°51'1011.6
2015-May-26 20:33N 34°50' E 139°39'1211.8
2015-May-26 19:33N 34°50' E 139°24'1411.7
2015-May-26 18:20N 34°43' E 139°09'  
Track history (hours):
 
Tides and Currents Weather Stations Pressure Air Temp Water Temp Dewpoint Dewpoint Depression Visibility Wind Speed Wind Dir Waves Ship Positions

Aiwamaru

Last reported at 2015-May-30 09:32 UTC. Time now 2015-May-30 10:30 UTC.
Position N 35°31' E 140°46'.

Length 64 m; draft 4.8 m.

Type: Tanker. MMSI: 431000508.

Date/timePositionNaut miles runAvg speedWind from/ knotsBaromVisibWave heightAir tempDewpointWater temp
2015-May-30 09:32N 35°31' E 140°46'3912.2
2015-May-30 06:23N 35°03' E 140°13'2310.1
2015-May-30 04:03N 34°55' E 139°46'510.6
2015-May-30 03:33N 34°60' E 139°44'1212.2
2015-May-30 02:33N 35°12' E 139°46'8 7.7
2015-May-30 01:33N 35°19' E 139°43'7 6.9
2015-May-30 00:33N 35°26' E 139°45'5 4.5
2015-May-29 23:33N 35°30' E 139°45'0 0.0
2015-May-29 22:33N 35°30' E 139°45'0 0.0
2015-May-29 21:33N 35°30' E 139°45'0 0.0
2015-May-29 20:33N 35°30' E 139°45'0 0.0
2015-May-29 19:33N 35°30' E 139°45'0 0.0
2015-May-29 18:33N 35°30' E 139°45'0 0.0
2015-May-29 17:33N 35°30' E 139°45'0 0.0
2015-May-29 16:33N 35°30' E 139°45'0 0.0
2015-May-29 15:33N 35°30' E 139°45'0 0.0
2015-May-29 14:33N 35°30' E 139°45'0 0.0
2015-May-29 13:33N 35°30' E 139°45'0 0.0
2015-May-29 12:33N 35°30' E 139°45'0 0.0
2015-May-29 11:33N 35°30' E 139°45'0 0.0
2015-May-29 10:33N 35°30' E 139°45'0 0.0
2015-May-29 09:33N 35°30' E 139°45'0 0.0
2015-May-29 08:33N 35°30' E 139°45'0 0.0
2015-May-29 07:33N 35°30' E 139°45'0 0.0
2015-May-29 06:33N 35°30' E 139°45'0 0.0
2015-May-29 05:33N 35°30' E 139°45'0 0.0
2015-May-29 04:33N 35°30' E 139°45'0 0.0
2015-May-29 03:33N 35°30' E 139°45'1 0.8
2015-May-29 02:33N 35°31' E 139°46'0 0.0
2015-May-29 01:33N 35°31' E 139°46'0 0.0
2015-May-29 00:33N 35°31' E 139°46'2 2.4
2015-May-28 23:33N 35°29' E 139°49'0 0.0
2015-May-28 22:33N 35°29' E 139°49'0 0.0
2015-May-28 21:33N 35°29' E 139°49'0 0.0
2015-May-28 20:33N 35°29' E 139°49'0 0.0
2015-May-28 19:33N 35°29' E 139°49'3 3.4
2015-May-28 18:33N 35°26' E 139°47'1010.0
2015-May-28 17:33N 35°16' E 139°46'1111.0
2015-May-28 16:33N 35°05' E 139°45'22 7.3
2015-May-28 13:31N 35°02' E 140°12'2110.0
2015-May-28 11:24N 35°17' E 140°30'82 3.0
2015-May-27 08:05N 36°36' E 140°53'911.6
2015-May-27 07:20N 36°27' E 140°54'4812.2
2015-May-27 03:22N 35°39' E 140°56'1112.5
2015-May-27 02:31N 35°31' E 140°47'4112.6
2015-May-26 23:18N 35°01' E 140°13'1211.5
2015-May-26 22:16N 34°55' E 140°01'1011.3
2015-May-26 21:25N 34°51' E 139°51'1011.6
2015-May-26 20:33N 34°50' E 139°39'1211.8
2015-May-26 19:33N 34°50' E 139°24'1411.7
2015-May-26 18:20N 34°43' E 139°09'  

Dump ship's entire track history